createdAt,value
2023-01-13T05:43:02.156Z,98051.34
2023-01-13T05:46:35.209Z,98053.01
2023-01-13T05:49:52.015Z,98057.02
2023-01-13T05:52:42.942Z,98062.35
2023-01-13T05:55:38.040Z,98065.48
2023-01-13T05:58:19.158Z,98065.66
2023-01-13T06:00:47.068Z,98067.96
2023-01-13T06:03:15.584Z,98064.46
2023-01-13T06:05:43.223Z,98064.93
2023-01-13T06:08:10.037Z,98062.21
2023-01-13T06:10:36.899Z,98062.94
2023-01-13T06:13:04.949Z,98057.25
2023-01-13T06:15:32.212Z,98062.43
2023-01-13T06:18:01.688Z,98054.82
2023-01-13T06:20:28.290Z,98052.71
2023-01-13T06:22:55.184Z,98052.77
2023-01-13T06:25:27.972Z,98055.05
2023-01-13T06:27:56.817Z,98052.23
2023-01-13T06:30:24.557Z,98052.91
2023-01-13T06:32:54.690Z,98051.75
2023-01-13T06:35:28.247Z,98051.74
2023-01-13T06:37:57.953Z,98050.70
2023-01-13T06:40:25.344Z,98048.02
2023-01-13T06:43:15.931Z,98046.25
2023-01-13T06:45:45.190Z,98047.35
2023-01-13T06:48:12.099Z,98043.00
2023-01-13T06:50:38.858Z,98040.95
2023-01-13T06:53:05.680Z,98042.30
2023-01-13T06:55:32.427Z,98042.36
2023-01-13T06:57:59.490Z,98044.61
2023-01-13T07:00:27.061Z,98045.24
2023-01-13T07:02:53.873Z,98044.83
2023-01-13T07:05:21.882Z,98045.83
2023-01-13T07:07:48.746Z,98041.66
2023-01-13T07:10:21.521Z,98045.77
2023-01-13T07:13:07.802Z,98044.16
2023-01-13T07:15:35.112Z,98046.70
2023-01-13T07:18:02.397Z,98045.51
2023-01-13T07:20:30.038Z,98048.23
2023-01-13T07:22:57.372Z,98044.52
2023-01-13T07:25:24.471Z,98047.26
2023-01-13T07:27:51.171Z,98048.50
2023-01-13T07:30:18.222Z,98048.67
2023-01-13T07:32:45.278Z,98055.17
2023-01-13T07:35:12.173Z,98056.17
2023-01-13T07:37:39.201Z,98056.05
2023-01-13T07:40:06.966Z,98057.66
2023-01-13T07:42:56.576Z,98059.90
2023-01-13T07:45:29.180Z,98058.73
2023-01-13T07:47:55.726Z,98059.88
2023-01-13T07:50:23.158Z,98059.95
2023-01-13T07:52:53.042Z,98066.23
2023-01-13T07:55:20.040Z,98070.52
2023-01-13T07:57:48.159Z,98069.79
2023-01-13T08:00:16.022Z,98072.59
2023-01-13T08:02:43.305Z,98074.08
2023-01-13T08:05:10.409Z,98069.76
2023-01-13T08:07:37.599Z,98070.42
2023-01-13T08:10:05.115Z,98074.63
2023-01-13T08:12:54.722Z,98084.02
2023-01-13T08:15:24.671Z,98085.77
2023-01-13T08:17:51.862Z,98085.77
2023-01-13T08:20:28.250Z,98087.65
2023-01-13T08:22:57.487Z,98090.58
2023-01-13T08:25:25.819Z,98093.33
2023-01-13T09:05:38.994Z,98141.15
2023-01-13T09:36:19.958Z,98175.13
2023-01-13T09:39:07.653Z,98176.36
2023-01-13T09:42:09.245Z,98176.71
2023-01-13T09:44:47.352Z,98179.48
2023-01-13T09:47:33.262Z,98184.20
2023-01-13T09:50:19.435Z,98166.64
2023-01-13T09:52:46.032Z,98158.79
2023-01-13T09:55:22.410Z,98160.16
2023-01-13T10:17:26.623Z,98241.10
2023-01-13T10:40:16.828Z,98246.77
2023-01-13T10:46:20.467Z,98248.33
2023-01-13T10:49:04.348Z,98240.49
2023-01-13T10:51:37.753Z,98240.31
2023-01-13T10:54:11.162Z,98235.47
2023-01-13T10:56:40.022Z,98226.41
2023-01-13T10:59:26.234Z,98222.73
2023-01-13T11:02:16.293Z,98217.84
2023-01-13T11:04:54.901Z,98211.27
2023-01-13T11:12:05.492Z,98192.31
2023-01-13T11:14:45.243Z,98191.11
2023-01-13T11:17:23.671Z,98187.15
2023-01-13T11:20:17.768Z,98183.16
2023-01-13T11:22:55.085Z,98181.64
2023-01-13T11:26:17.922Z,98178.27
2023-01-13T11:29:03.703Z,98173.95
2023-01-13T11:31:37.363Z,98155.09
2023-01-13T11:34:29.367Z,98142.65
2023-01-13T11:37:00.335Z,98135.23
2023-01-13T11:40:03.203Z,98120.94
2023-01-13T11:42:46.031Z,98111.64
2023-01-13T11:45:19.750Z,98110.83
2023-01-13T11:47:50.549Z,98101.15
2023-01-13T11:50:34.316Z,98099.65
2023-01-13T11:53:24.555Z,98102.60
2023-01-13T11:56:28.845Z,98100.79
2023-01-13T11:59:18.886Z,98105.88
2023-01-13T12:02:07.207Z,98106.79
2023-01-13T12:04:50.483Z,98113.17
2023-01-13T12:07:48.798Z,98117.70
2023-01-13T12:10:25.552Z,98118.72
2023-01-13T12:13:20.545Z,98120.52
2023-01-13T12:16:14.222Z,98123.80
2023-01-13T12:19:07.422Z,98122.42
2023-01-13T12:22:12.217Z,98123.08
2023-01-13T12:24:43.311Z,98121.92
2023-01-13T12:27:14.061Z,98123.89
2023-01-13T12:30:29.741Z,98130.23
2023-01-13T12:33:05.123Z,98133.79
2023-01-13T12:35:49.202Z,98130.77
2023-01-13T12:38:57.952Z,98135.27
2023-01-13T12:42:11.387Z,98132.02
2023-01-13T12:45:07.041Z,98132.23
2023-01-13T12:47:39.482Z,98134.91
2023-01-13T12:50:21.857Z,98136.36
2023-01-13T12:52:50.383Z,98134.83
2023-01-13T12:55:31.221Z,98133.56
2023-01-13T12:58:02.384Z,98134.93
2023-01-13T13:00:41.442Z,98139.54
2023-01-13T13:03:14.192Z,98143.92
2023-01-13T13:06:19.425Z,98148.65
2023-01-13T13:26:30.298Z,98225.98
2023-01-13T13:29:09.162Z,98196.99
2023-01-13T13:32:14.806Z,98186.74
2023-01-13T13:35:14.442Z,98178.64
2023-01-13T13:38:25.975Z,98175.67
2023-01-13T13:41:13.094Z,98173.60
2023-01-13T13:44:23.605Z,98169.59
2023-01-13T13:52:50.778Z,98166.66
2023-01-13T14:04:36.757Z,98174.16
2023-01-13T14:08:08.394Z,98177.54
2023-01-13T14:10:39.577Z,98177.73
2023-01-13T14:14:16.298Z,98182.45
2023-01-13T14:18:42.697Z,98184.60
2023-01-13T14:28:41.332Z,98188.77
2023-01-13T14:31:53.968Z,98188.63
2023-01-13T14:34:54.164Z,98186.63
2023-01-13T14:37:36.983Z,98189.30
2023-01-13T14:40:35.917Z,98185.73
2023-01-13T14:43:13.738Z,98195.10
2023-01-13T14:46:14.882Z,98193.45
2023-01-13T14:52:33.780Z,98190.70
2023-01-13T14:55:27.321Z,98191.36
2023-01-13T15:09:42.106Z,98190.50
2023-01-13T15:12:44.017Z,98187.99
2023-01-13T15:17:06.936Z,98185.67
2023-01-13T15:19:55.039Z,98190.61
2023-01-13T15:22:25.983Z,98191.34
2023-01-13T15:25:18.840Z,98185.23
2023-01-13T15:27:58.341Z,98185.16
2023-01-13T15:30:28.100Z,98183.45
2023-01-13T15:32:59.528Z,98184.91
2023-01-13T15:35:29.965Z,98184.15
2023-01-13T15:37:58.494Z,98177.59
2023-01-13T15:40:32.713Z,98172.71
2023-01-13T15:43:19.884Z,98173.66
2023-01-13T15:46:09.372Z,98165.77
2023-01-13T15:48:37.627Z,98165.73
2023-01-13T15:51:21.982Z,98160.29
2023-01-13T15:54:41.395Z,98155.71
2023-01-13T16:32:22.175Z,98143.15
2023-01-13T16:43:23.859Z,98146.36
2023-01-13T16:45:52.187Z,98149.07
2023-01-13T17:43:04.787Z,98081.68
2023-01-13T17:45:33.984Z,98082.95
2023-01-13T17:48:02.099Z,98080.67
2023-01-13T18:21:42.801Z,98088.47
2023-01-13T18:24:37.559Z,98089.66
2023-01-13T18:27:19.379Z,98094.33
2023-01-13T18:29:57.654Z,98091.19
2023-01-13T18:32:33.175Z,98092.36
2023-01-13T18:35:06.983Z,98092.13
2023-01-13T18:37:45.001Z,98089.67
2023-01-13T18:47:58.595Z,98101.20
2023-01-13T18:50:28.339Z,98100.52
2023-01-13T18:53:04.668Z,98104.34
2023-01-13T18:55:33.878Z,98107.11
2023-01-13T18:58:22.512Z,98111.70
2023-01-13T19:01:11.819Z,98115.55
2023-01-13T19:03:40.717Z,98116.25
2023-01-13T19:06:11.834Z,98111.28
2023-01-13T19:08:42.836Z,98106.65
2023-01-13T19:11:12.281Z,98102.58
2023-01-13T19:13:40.655Z,98101.38
2023-01-13T19:16:12.154Z,98106.73
2023-01-13T19:18:42.079Z,98107.61
2023-01-13T19:21:14.175Z,98112.55
2023-01-13T19:24:13.549Z,98115.98
2023-01-13T19:26:57.630Z,98118.20
2023-01-13T19:29:26.263Z,98115.88
2023-01-13T19:31:54.643Z,98111.96
2023-01-13T19:34:33.077Z,98111.52
2023-01-13T19:59:51.068Z,98144.99
2023-01-13T20:03:15.563Z,98147.70
2023-01-13T20:05:48.593Z,98150.48
2023-01-13T20:08:27.237Z,98150.55
2023-01-13T20:11:31.625Z,98155.01
2023-01-13T20:28:55.801Z,98207.99
2023-01-13T20:31:40.252Z,98203.98
2023-01-13T20:37:56.633Z,98212.83
2023-01-13T20:41:03.508Z,98218.50
2023-01-13T20:50:13.535Z,98229.50
2023-01-13T20:52:46.960Z,98229.04
2023-01-13T20:55:20.692Z,98228.52
2023-01-13T21:01:06.905Z,98235.95
2023-01-13T21:03:35.435Z,98243.09
2023-01-13T21:06:30.565Z,98248.86
